Time;durP1;ratioP1;P1;durP2;ratioP2;P2;SDS_P1;SDS_P2;PMS_P1;PMS_P2;Temp;Humidity;BMP_temperature;BMP_pressure;BME280_temperature;BME280_humidity;BME280_pressure;Samples;Min_cycle;Max_cycle;Signal;HPM_P1;HPM_P2
2021/04/26 00:00:28;;;;;;;44.08;18.48;;;;;;;-0.63;61.53;97529.28;1825068;77;25677;-80
2021/04/26 00:02:59;;;;;;;51.98;20.75;;;;;;;-0.66;61.47;97530.03;1807111;78;25709;-80
2021/04/26 00:05:29;;;;;;;54.90;21.23;;;;;;;-0.73;61.60;97528.44;1806214;78;26517;-80
2021/04/26 00:07:58;;;;;;;52.03;19.37;;;;;;;-0.77;61.71;97531.00;1803489;78;25789;-80
2021/04/26 00:10:26;;;;;;;54.03;22.15;;;;;;;-0.79;61.75;97523.67;1792638;78;28441;-80
2021/04/26 00:12:53;;;;;;;48.58;19.62;;;;;;;-0.82;61.68;97523.94;1815472;78;26140;-80
2021/04/26 00:15:26;;;;;;;48.02;18.80;;;;;;;-0.85;61.75;97525.56;1798536;78;26338;-80
2021/04/26 00:17:53;;;;;;;43.35;19.02;;;;;;;-0.87;61.66;97523.05;1796527;78;26548;-80
2021/04/26 00:20:27;;;;;;;49.05;19.30;;;;;;;-0.86;61.82;97523.89;1806184;78;25745;-80
2021/04/26 00:22:56;;;;;;;40.10;16.87;;;;;;;-0.88;61.91;97521.38;1795824;78;27488;-80
2021/04/26 00:25:23;;;;;;;43.83;16.67;;;;;;;-0.95;61.97;97515.41;1797678;78;26115;-80
2021/04/26 00:27:51;;;;;;;36.65;15.72;;;;;;;-1.04;61.97;97518.89;1796694;78;25731;-80
2021/04/26 00:30:22;;;;;;;32.00;14.75;;;;;;;-1.03;62.10;97521.41;1811549;77;25749;-80
2021/04/26 00:32:50;;;;;;;40.98;16.90;;;;;;;-1.04;62.11;97520.22;1799927;78;25876;-80
2021/04/26 00:35:19;;;;;;;35.43;15.72;;;;;;;-1.07;62.05;97523.97;1808048;78;27546;-80
2021/04/26 00:37:48;;;;;;;40.10;16.35;;;;;;;-1.15;61.89;97518.03;1803067;78;26029;-80
2021/04/26 00:40:16;;;;;;;44.18;16.80;;;;;;;-1.19;61.97;97529.86;1787396;78;25693;-80
2021/04/26 00:42:43;;;;;;;38.30;14.43;;;;;;;-1.17;62.18;97526.59;1782600;78;26468;-80
2021/04/26 00:45:14;;;;;;;38.25;15.58;;;;;;;-1.24;62.05;97530.77;1775716;78;25301;-80
2021/04/26 00:47:44;;;;;;;37.90;17.37;;;;;;;-1.28;62.28;97537.30;1794873;78;27584;-80
2021/04/26 00:50:17;;;;;;;38.65;15.10;;;;;;;-1.32;62.45;97531.91;1807949;78;25760;-80
2021/04/26 00:52:44;;;;;;;43.52;16.77;;;;;;;-1.33;62.30;97538.70;1808328;78;25652;-80
2021/04/26 00:55:13;;;;;;;38.35;15.45;;;;;;;-1.32;62.36;97537.20;1787973;78;25675;-80
2021/04/26 00:57:40;;;;;;;35.85;14.43;;;;;;;-1.34;62.36;97531.23;1819083;78;25884;-80
2021/04/26 01:00:10;;;;;;;41.25;16.27;;;;;;;-1.36;62.45;97529.69;1779567;78;27578;-80
2021/04/26 01:02:38;;;;;;;34.80;14.60;;;;;;;-1.41;62.47;97527.43;1785883;78;26105;-80
2021/04/26 01:05:10;;;;;;;32.73;13.60;;;;;;;-1.41;62.57;97534.05;1780476;78;25703;-80
2021/04/26 01:07:40;;;;;;;31.73;13.50;;;;;;;-1.41;62.63;97536.70;1791150;78;26176;-80
2021/04/26 01:10:12;;;;;;;31.35;13.13;;;;;;;-1.45;62.71;97537.95;1778649;78;25716;-80
2021/04/26 01:12:50;;;;;;;27.87;12.35;;;;;;;-1.45;62.71;97536.63;1783927;78;27560;-80
2021/04/26 01:15:25;;;;;;;34.10;13.28;;;;;;;-1.47;62.71;97536.77;1782327;78;26146;-80
2021/04/26 01:17:57;;;;;;;27.55;12.47;;;;;;;-1.49;62.70;97533.89;1796026;78;25706;-80
2021/04/26 01:21:09;;;;;;;33.40;13.58;;;;;;;-1.51;62.67;97530.53;1778230;78;25795;-80
2021/04/26 01:24:09;;;;;;;34.38;15.55;;;;;;;-1.55;62.72;97538.38;1802324;78;25735;-80
2021/04/26 01:27:00;;;;;;;49.80;16.97;;;;;;;-1.60;62.87;97536.63;1814312;78;28479;-80
2021/04/26 01:29:48;;;;;;;37.40;15.60;;;;;;;-1.66;62.80;97526.56;1785207;78;25875;-80
2021/04/26 01:32:55;;;;;;;32.60;13.75;;;;;;;-1.69;63.09;97531.63;1803040;78;25818;-80
2021/04/26 01:35:24;;;;;;;34.20;13.32;;;;;;;-1.71;63.09;97535.40;1776264;78;26529;-80
2021/04/26 01:37:56;;;;;;;32.33;12.28;;;;;;;-1.74;63.19;97527.72;1791806;78;25833;-79
2021/04/26 01:40:26;;;;;;;33.50;13.88;;;;;;;-1.78;63.28;97530.27;1815521;78;29219;-80
2021/04/26 01:42:58;;;;;;;32.30;12.50;;;;;;;-1.82;63.25;97522.61;1810783;78;25694;-79
2021/04/26 01:45:26;;;;;;;32.45;12.47;;;;;;;-1.84;63.47;97521.89;1807990;78;25714;-79
2021/04/26 01:47:57;;;;;;;31.73;13.32;;;;;;;-1.86;63.47;97517.70;1799393;78;25723;-79
2021/04/26 01:50:26;;;;;;;41.10;14.35;;;;;;;-1.89;63.46;97526.73;1819816;78;26367;-80
2021/04/26 01:52:54;;;;;;;36.77;14.45;;;;;;;-1.89;63.59;97521.44;1816458;78;27467;-80
2021/04/26 01:55:23;;;;;;;35.65;13.45;;;;;;;-1.91;63.61;97519.41;1796484;78;25808;-80
2021/04/26 01:57:52;;;;;;;30.95;13.45;;;;;;;-1.94;63.75;97518.37;1806123;78;25750;-79
2021/04/26 02:00:27;;;;;;;35.08;14.13;;;;;;;-1.96;63.66;97517.66;1805866;78;25767;-80
2021/04/26 02:02:57;;;;;;;33.90;12.55;;;;;;;-1.99;63.74;97511.30;1792604;78;26310;-80
2021/04/26 02:05:27;;;;;;;29.72;12.47;;;;;;;-2.08;63.58;97519.19;1792651;78;27492;-79
2021/04/26 02:07:55;;;;;;;32.50;12.60;;;;;;;-2.14;63.75;97521.84;1801492;78;26155;-80
2021/04/26 02:10:28;;;;;;;30.40;13.43;;;;;;;-2.17;63.88;97520.77;1792461;78;25790;-79
2021/04/26 02:12:58;;;;;;;33.18;13.32;;;;;;;-2.19;63.88;97518.77;1796579;78;25695;-79
2021/04/26 02:15:29;;;;;;;37.58;14.38;;;;;;;-2.19;63.87;97518.77;1805948;78;26914;-79
2021/04/26 02:17:57;;;;;;;34.03;15.40;;;;;;;-2.20;63.93;97521.06;1819560;77;27487;-80
2021/04/26 02:20:25;;;;;;;40.85;15.68;;;;;;;-2.21;63.97;97522.86;1798032;78;26312;-79
2021/04/26 02:22:53;;;;;;;34.95;15.58;;;;;;;-2.21;63.91;97515.41;1794409;78;25755;-80
2021/04/26 02:25:21;;;;;;;38.67;16.65;;;;;;;-2.22;63.87;97516.37;1806047;78;26453;-79
2021/04/26 02:27:48;;;;;;;31.52;15.63;;;;;;;-2.22;63.96;97513.73;1797757;78;25801;-79
2021/04/26 02:30:17;;;;;;;40.23;16.55;;;;;;;-2.23;63.99;97513.38;1812369;78;27483;-79
2021/04/26 02:33:16;;;;;;;30.70;14.53;;;;;;;-2.25;64.08;97515.30;1802034;78;25779;-79
2021/04/26 02:35:50;;;;;;;35.75;15.05;;;;;;;-2.27;64.16;97509.30;1799893;78;25777;-80
2021/04/26 02:38:28;;;;;;;36.33;15.25;;;;;;;-2.32;64.28;97505.75;1814221;78;25726;-79
2021/04/26 02:41:09;;;;;;;30.80;13.53;;;;;;;-2.32;64.36;97503.58;1787411;78;25822;-80
2021/04/26 02:43:43;;;;;;;31.97;13.90;;;;;;;-2.35;64.46;97506.48;1794015;78;27521;-79
2021/04/26 02:46:12;;;;;;;34.70;13.68;;;;;;;-2.35;64.53;97507.31;1814304;78;25686;-79
2021/04/26 02:48:45;;;;;;;32.42;14.47;;;;;;;-2.35;64.68;97490.12;1796680;78;25869;-79
2021/04/26 02:51:12;;;;;;;34.00;13.62;;;;;;;-2.36;64.83;97486.29;1785924;78;25870;-79
2021/04/26 02:53:40;;;;;;;41.02;14.43;;;;;;;-2.36;64.80;97491.09;1797113;78;25817;-79
2021/04/26 02:56:14;;;;;;;41.55;15.78;;;;;;;-2.31;64.81;97489.40;1775647;78;27485;-79
2021/04/26 02:58:45;;;;;;;45.63;14.07;;;;;;;-2.31;64.85;97494.69;1777533;78;25763;-79
2021/04/26 03:01:14;;;;;;;41.55;14.85;;;;;;;-2.42;64.89;97493.43;1809875;78;26148;-79
2021/04/26 03:03:44;;;;;;;41.20;16.23;;;;;;;-2.54;64.91;97492.66;1806809;78;26041;-80
2021/04/26 03:06:14;;;;;;;36.45;15.93;;;;;;;-2.55;65.04;97493.62;1775748;78;25863;-80
2021/04/26 03:08:41;;;;;;;33.95;16.02;;;;;;;-2.53;65.14;97494.30;1794452;78;27547;-79
2021/04/26 03:11:13;;;;;;;32.20;14.53;;;;;;;-2.50;65.16;97495.86;1794956;78;25791;-79
2021/04/26 03:13:40;;;;;;;40.30;12.80;;;;;;;-2.49;65.13;97488.28;1793408;78;25668;-79
2021/04/26 03:16:08;;;;;;;27.67;12.60;;;;;;;-2.46;65.17;97492.84;1796250;78;25755;-80
2021/04/26 03:18:36;;;;;;;37.25;14.13;;;;;;;-2.44;65.14;97491.39;1775796;78;25297;-79
2021/04/26 03:21:09;;;;;;;31.20;13.55;;;;;;;-2.41;65.17;97489.80;1745252;78;28559;-79
2021/04/26 03:23:37;;;;;;;34.92;14.35;;;;;;;-2.39;65.13;97490.50;1787769;78;26082;-80
2021/04/26 03:26:08;;;;;;;43.92;16.35;;;;;;;-2.43;65.23;97491.27;1801213;78;25843;-79
2021/04/26 03:28:38;;;;;;;40.75;14.65;;;;;;;-2.47;65.28;97492.97;1775768;78;25722;-80
2021/04/26 03:31:07;;;;;;;44.80;16.77;;;;;;;-2.48;65.23;97491.28;1775736;78;25684;-79
2021/04/26 03:33:36;;;;;;;53.65;17.32;;;;;;;-2.51;65.25;97499.47;1783198;78;27559;-80
2021/04/26 03:36:05;;;;;;;50.05;16.95;;;;;;;-2.65;65.10;97492.20;1785181;78;26040;-80
2021/04/26 03:38:33;;;;;;;46.42;17.67;;;;;;;-2.71;65.20;97507.25;1775601;78;25768;-79
2021/04/26 03:41:01;;;;;;;46.53;17.92;;;;;;;-2.72;65.38;97500.29;1775641;78;25837;-79
2021/04/26 03:43:28;;;;;;;58.80;16.52;;;;;;;-2.71;65.29;97499.81;1778058;78;25811;-79
2021/04/26 03:45:59;;;;;;;47.60;16.97;;;;;;;-2.73;65.37;97503.89;1788076;78;27498;-80
2021/04/26 03:48:26;;;;;;;43.15;14.65;;;;;;;-2.79;65.49;97507.06;1802964;78;25758;-79
2021/04/26 03:50:53;;;;;;;37.42;14.90;;;;;;;-2.82;65.54;97508.63;1783832;78;25708;-79
2021/04/26 03:53:21;;;;;;;40.88;16.02;;;;;;;-2.84;65.62;97514.52;1793945;78;26354;-79
2021/04/26 03:55:48;;;;;;;41.18;17.32;;;;;;;-2.85;65.64;97511.98;1775677;78;25813;-79
2021/04/26 03:58:15;;;;;;;41.55;16.90;;;;;;;-2.86;65.67;97516.44;1803040;78;27542;-79
2021/04/26 04:00:42;;;;;;;46.68;17.15;;;;;;;-2.86;65.78;97511.15;1788807;78;25773;-80
2021/04/26 04:03:13;;;;;;;37.45;15.32;;;;;;;-2.83;65.83;97514.03;1780337;78;25821;-79
2021/04/26 04:05:41;;;;;;;34.30;15.75;;;;;;;-2.81;65.88;97509.46;1796707;78;25837;-79
2021/04/26 04:08:09;;;;;;;38.70;13.90;;;;;;;-2.83;65.95;97513.55;1789403;78;25880;-79
2021/04/26 04:10:37;;;;;;;36.30;15.32;;;;;;;-2.81;66.04;97517.39;1810714;78;27485;-80
2021/04/26 04:13:04;;;;;;;41.28;15.30;;;;;;;-2.80;66.18;97515.95;1806227;78;25708;-79
2021/04/26 04:15:32;;;;;;;39.42;14.28;;;;;;;-2.79;66.26;97522.91;1786813;78;25760;-79
2021/04/26 04:17:59;;;;;;;33.58;14.03;;;;;;;-2.75;66.30;97520.83;1789772;78;26467;-79
2021/04/26 04:20:26;;;;;;;34.43;14.65;;;;;;;-2.71;66.27;97521.79;1795468;78;25708;-80
2021/04/26 04:22:53;;;;;;;34.40;13.78;;;;;;;-2.66;66.25;97520.94;1799068;78;27526;-80
2021/04/26 04:25:21;;;;;;;37.60;14.33;;;;;;;-2.63;66.31;97523.30;1790249;78;25771;-80
2021/04/26 04:27:48;;;;;;;35.48;16.15;;;;;;;-2.61;66.37;97527.98;1794993;78;25711;-80
2021/04/26 04:30:17;;;;;;;48.23;18.82;;;;;;;-2.57;66.39;97532.06;1775692;78;25826;-80
2021/04/26 04:32:44;;;;;;;45.28;16.00;;;;;;;-2.50;66.43;97536.83;1794855;78;25841;-80
2021/04/26 04:35:12;;;;;;;43.92;16.97;;;;;;;-2.45;66.53;97538.62;1784278;78;27532;-80
2021/04/26 04:37:39;;;;;;;38.02;16.65;;;;;;;-2.40;66.56;97537.73;1792787;78;26040;-80
2021/04/26 04:40:08;;;;;;;44.50;17.87;;;;;;;-2.35;66.53;97532.43;1795786;78;25766;-80
2021/04/26 04:42:35;;;;;;;43.05;19.35;;;;;;;-2.28;66.54;97537.55;1806237;78;25718;-80
2021/04/26 04:45:04;;;;;;;51.15;21.85;;;;;;;-2.22;66.55;97537.53;1796526;78;25873;-80
2021/04/26 04:47:31;;;;;;;52.73;22.22;;;;;;;-2.16;66.51;97529.06;1806109;78;27547;-80
2021/04/26 04:49:58;;;;;;;37.95;16.65;;;;;;;-2.12;66.53;97529.17;1804651;78;26095;-80
2021/04/26 04:52:26;;;;;;;37.50;16.15;;;;;;;-2.10;66.44;97530.38;1792554;78;26314;-80
2021/04/26 04:54:53;;;;;;;35.63;16.07;;;;;;;-2.06;66.37;97527.34;1792466;78;25691;-80
2021/04/26 04:57:20;;;;;;;41.88;17.50;;;;;;;-2.00;66.37;97524.16;1797120;78;25804;-81
2021/04/26 04:59:48;;;;;;;41.50;17.90;;;;;;;-1.92;66.35;97532.28;1797378;78;27483;-80
2021/04/26 05:02:15;;;;;;;42.50;17.55;;;;;;;-1.85;66.38;97533.45;1795877;78;26116;-81
2021/04/26 05:04:42;;;;;;;46.80;21.00;;;;;;;-1.77;66.35;97534.11;1806145;78;25862;-80
2021/04/26 05:07:10;;;;;;;55.17;21.95;;;;;;;-1.73;66.52;97539.98;1794166;78;25823;-81
2021/04/26 05:09:37;;;;;;;42.35;18.40;;;;;;;-1.70;66.67;97533.11;1799105;78;25783;-81
2021/04/26 05:12:05;;;;;;;45.12;18.80;;;;;;;-1.70;66.61;97535.75;1806033;78;28534;-81
2021/04/26 05:14:34;;;;;;;40.70;18.92;;;;;;;-1.68;66.57;97531.98;1800491;78;25302;-80
2021/04/26 05:17:02;;;;;;;38.80;17.75;;;;;;;-1.59;66.50;97538.31;1801973;78;25755;-81
2021/04/26 05:19:30;;;;;;;41.88;17.90;;;;;;;-1.52;66.46;97539.44;1794550;78;25733;-80
2021/04/26 05:21:57;;;;;;;38.48;16.82;;;;;;;-1.44;66.55;97539.60;1806020;78;25686;-80
2021/04/26 05:24:25;;;;;;;42.78;17.75;;;;;;;-1.35;66.54;97539.31;1807510;78;27500;-80
2021/04/26 05:26:52;;;;;;;31.95;15.68;;;;;;;-1.28;66.48;97536.46;1812285;78;26116;-80
2021/04/26 05:29:19;;;;;;;45.85;18.32;;;;;;;-1.20;66.31;97537.45;1792548;78;25840;-79
2021/04/26 05:31:47;;;;;;;45.98;18.77;;;;;;;-1.15;66.27;97543.20;1811837;78;26462;-80
2021/04/26 05:34:14;;;;;;;44.08;17.00;;;;;;;-1.07;66.21;97547.81;1825099;78;25844;-80
2021/04/26 05:36:41;;;;;;;36.55;14.93;;;;;;;-1.03;66.13;97543.09;1817392;78;28459;-80
2021/04/26 05:39:09;;;;;;;31.60;13.35;;;;;;;-0.96;65.92;97537.09;1792454;78;26108;-79
2021/04/26 05:41:36;;;;;;;27.87;12.78;;;;;;;-0.86;65.90;97537.98;1805399;78;25750;-80
2021/04/26 05:44:04;;;;;;;24.47;12.03;;;;;;;-0.77;65.89;97538.47;1811440;77;25809;-80
2021/04/26 05:46:32;;;;;;;35.23;13.95;;;;;;;-0.67;65.94;97538.47;1800811;78;25683;-80
2021/04/26 05:48:59;;;;;;;41.85;13.68;;;;;;;-0.64;65.75;97537.37;1775543;78;27485;-80
2021/04/26 05:51:26;;;;;;;34.78;13.35;;;;;;;-0.57;65.84;97537.98;1806057;78;25708;-80
2021/04/26 05:53:54;;;;;;;36.93;14.75;;;;;;;-0.50;65.69;97532.50;1802985;78;25274;-80
2021/04/26 05:56:21;;;;;;;29.32;12.70;;;;;;;-0.40;65.55;97536.47;1785797;78;25703;-80
2021/04/26 05:58:50;;;;;;;30.27;13.08;;;;;;;-0.28;65.40;97531.86;1775627;78;25752;-79
2021/04/26 06:01:18;;;;;;;26.20;12.03;;;;;;;-0.19;65.24;97532.33;1781758;78;27506;-79
2021/04/26 06:03:46;;;;;;;30.37;13.55;;;;;;;-0.13;65.23;97527.80;1812077;78;25738;-80
2021/04/26 06:06:13;;;;;;;28.23;12.45;;;;;;;-0.05;65.20;97518.63;1803027;78;26297;-80
2021/04/26 06:08:40;;;;;;;21.70;11.35;;;;;;;0.01;65.27;97516.71;1781141;78;25699;-79
2021/04/26 06:11:08;;;;;;;26.65;12.50;;;;;;;0.09;65.34;97508.05;1786736;78;25305;-79
2021/04/26 06:13:35;;;;;;;29.48;13.00;;;;;;;0.19;65.35;97502.22;1783764;78;28531;-79
2021/04/26 06:16:03;;;;;;;29.75;13.20;;;;;;;0.27;65.47;97488.56;1794058;78;25846;-80
2021/04/26 06:18:31;;;;;;;28.42;13.38;;;;;;;0.39;65.33;97489.22;1775769;78;25851;-80
2021/04/26 06:20:58;;;;;;;28.73;13.10;;;;;;;0.51;65.10;97488.53;1782744;78;25858;-80
2021/04/26 06:23:26;;;;;;;32.67;13.50;;;;;;;0.64;64.85;97475.27;1803158;78;25838;-79
2021/04/26 06:25:53;;;;;;;28.90;13.40;;;;;;;0.78;64.76;97476.59;1784200;78;27483;-79
2021/04/26 06:28:21;;;;;;;26.85;13.60;;;;;;;0.90;64.67;97471.41;1778918;78;26385;-80
2021/04/26 06:30:48;;;;;;;24.15;11.68;;;;;;;1.02;64.53;97473.36;1806432;78;25798;-80
2021/04/26 06:33:16;;;;;;;22.87;10.45;;;;;;;1.18;64.12;97473.54;1804265;78;25659;-79
2021/04/26 06:35:50;;;;;;;15.80;8.63;;;;;;;1.32;63.49;97464.20;1788455;78;25814;-79
2021/04/26 06:38:19;;;;;;;23.18;10.58;;;;;;;1.48;63.11;97469.64;1782214;78;26491;-79
2021/04/26 06:40:47;;;;;;;19.82;9.13;;;;;;;1.64;62.99;97471.13;1792584;78;26313;-79
2021/04/26 06:43:16;;;;;;;21.75;10.38;;;;;;;1.81;62.72;97466.25;1803895;78;26288;-80
2021/04/26 06:45:45;;;;;;;21.35;8.90;;;;;;;2.00;62.56;97461.73;1800082;78;26404;-80
2021/04/26 06:48:16;;;;;;;18.67;8.60;;;;;;;2.15;62.02;97455.69;1815525;78;25719;-79
2021/04/26 06:50:45;;;;;;;15.53;7.37;;;;;;;2.30;61.27;97456.41;1793161;78;27485;-79
2021/04/26 06:53:14;;;;;;;23.50;10.78;;;;;;;2.45;60.99;97452.16;1812268;78;25382;-79
2021/04/26 06:55:41;;;;;;;18.98;9.90;;;;;;;2.61;60.75;97460.73;1809910;78;25676;-77
2021/04/26 06:58:09;;;;;;;18.05;8.08;;;;;;;2.78;60.31;97459.78;1812491;78;26301;-79
2021/04/26 07:00:36;;;;;;;18.05;8.03;;;;;;;2.91;59.60;97460.16;1798083;78;25881;-79
2021/04/26 07:03:04;;;;;;;23.52;10.75;;;;;;;3.04;59.42;97459.70;1792560;78;27546;-79
2021/04/26 07:05:32;;;;;;;20.77;9.88;;;;;;;3.16;59.20;97457.89;1815159;78;25738;-79
2021/04/26 07:07:59;;;;;;;15.70;8.30;;;;;;;3.31;58.76;97467.43;1815258;78;26261;-79
2021/04/26 07:10:30;;;;;;;13.43;7.28;;;;;;;3.45;58.00;97469.45;1792595;78;25902;-78
2021/04/26 07:12:57;;;;;;;13.58;6.10;;;;;;;3.59;57.25;97467.97;1800108;78;25757;-79
2021/04/26 07:15:25;;;;;;;13.30;6.30;;;;;;;3.74;57.42;97466.31;1808887;78;27498;-79
2021/04/26 07:17:52;;;;;;;10.90;6.42;;;;;;;3.88;56.54;97466.95;1794299;78;25762;-79
2021/04/26 07:20:20;;;;;;;14.58;6.92;;;;;;;3.97;55.62;97464.63;1792686;78;25691;-79
2021/04/26 07:22:47;;;;;;;12.50;5.85;;;;;;;4.09;55.70;97458.94;1792541;78;25797;-79
2021/04/26 07:25:15;;;;;;;20.10;9.53;;;;;;;4.22;54.99;97459.25;1798267;78;25794;-78
2021/04/26 07:27:43;;;;;;;20.72;7.37;;;;;;;4.39;54.64;97459.52;1820176;78;27657;-79
2021/04/26 07:30:12;;;;;;;12.33;5.17;;;;;;;4.54;54.30;97461.82;1818346;77;25899;-78
2021/04/26 07:32:41;;;;;;;30.05;8.78;;;;;;;4.70;54.17;97461.77;1806169;78;25801;-79
2021/04/26 07:35:11;;;;;;;10.72;5.03;;;;;;;4.94;53.49;97461.34;1806174;78;26437;-79
2021/04/26 07:37:40;;;;;;;9.90;4.08;;;;;;;5.17;53.01;97458.20;1806191;78;25788;-79
2021/04/26 07:40:10;;;;;;;15.15;6.65;;;;;;;5.53;52.70;97455.79;1807546;77;27474;-78
2021/04/26 07:42:38;;;;;;;9.35;5.17;;;;;;;5.86;52.23;97459.03;1775570;78;25401;-79
2021/04/26 07:45:08;;;;;;;9.15;4.80;;;;;;;6.37;51.42;97455.24;1794990;78;25751;-79
2021/04/26 07:47:35;;;;;;;9.83;4.85;;;;;;;6.75;50.97;97447.95;1775728;78;26390;-79
2021/04/26 07:50:05;;;;;;;8.23;4.50;;;;;;;7.35;50.26;97453.52;1779212;78;25863;-80
2021/04/26 07:52:33;;;;;;;9.58;4.17;;;;;;;7.94;50.45;97441.50;1802888;78;28701;-80
2021/04/26 07:55:01;;;;;;;9.50;3.98;;;;;;;8.25;49.35;97443.80;1804380;77;25666;-79
2021/04/26 07:57:30;;;;;;;7.35;3.27;;;;;;;8.49;48.55;97443.06;1790300;78;25823;-80
2021/04/26 07:59:58;;;;;;;7.58;3.70;;;;;;;8.36;47.28;97444.31;1781107;78;25839;-80
2021/04/26 08:02:25;;;;;;;5.25;3.33;;;;;;;8.17;46.48;97438.58;1788318;78;25802;-79
2021/04/26 08:04:53;;;;;;;5.53;3.33;;;;;;;8.26;46.76;97437.40;1784106;78;28233;-80
2021/04/26 08:07:20;;;;;;;9.60;5.00;;;;;;;8.58;46.07;97432.45;1802930;78;25750;-80
2021/04/26 08:09:48;;;;;;;9.43;3.85;;;;;;;8.53;45.92;97441.13;1797606;78;25747;-80
2021/04/26 08:12:15;;;;;;;39.65;14.13;;;;;;;8.14;45.14;97436.27;1800148;77;26466;-80
2021/04/26 08:14:43;;;;;;;13.98;5.45;;;;;;;8.16;45.46;97439.60;1783070;78;26189;-81
2021/04/26 08:17:11;;;;;;;12.10;5.78;;;;;;;7.97;43.93;97448.32;1793159;78;28436;-79
2021/04/26 08:19:38;;;;;;;4.83;3.30;;;;;;;7.55;44.20;97448.67;1781055;78;25775;-80
2021/04/26 08:22:07;;;;;;;3.37;2.62;;;;;;;7.69;44.49;97448.80;1775585;78;25875;-80
2021/04/26 08:24:35;;;;;;;6.60;3.05;;;;;;;8.13;43.99;97446.70;1779503;78;26626;-80
2021/04/26 08:27:02;;;;;;;5.62;2.92;;;;;;;8.17;43.66;97442.61;1790407;78;25333;-80
2021/04/26 08:29:30;;;;;;;4.97;2.40;;;;;;;8.23;43.79;97436.44;1787088;78;27552;-80
2021/04/26 08:31:57;;;;;;;6.55;2.92;;;;;;;8.11;42.45;97435.82;1798944;78;25842;-78
2021/04/26 08:34:25;;;;;;;3.45;2.42;;;;;;;8.07;42.64;97434.57;1807873;78;26062;-79
2021/04/26 08:36:52;;;;;;;6.15;2.75;;;;;;;8.05;42.58;97432.58;1802893;78;25789;-79
2021/04/26 08:39:20;;;;;;;5.30;3.20;;;;;;;8.09;41.96;97440.05;1785591;78;25818;-79
2021/04/26 08:41:47;;;;;;;7.08;3.40;;;;;;;8.20;42.30;97440.88;1796054;78;27301;-79
2021/04/26 08:44:15;;;;;;;5.72;3.42;;;;;;;8.22;41.76;97442.84;1781632;78;26409;-80
2021/04/26 08:46:45;;;;;;;5.15;3.25;;;;;;;8.61;41.30;97439.63;1781399;78;25716;-79
2021/04/26 08:49:19;;;;;;;6.65;3.95;;;;;;;8.59;41.08;97432.26;1794456;78;26597;-79
2021/04/26 08:51:47;;;;;;;6.03;3.72;;;;;;;8.89;41.43;97436.05;1789088;78;25638;-80
2021/04/26 08:54:18;;;;;;;6.37;3.83;;;;;;;9.45;41.48;97435.31;1803588;78;28497;-80
2021/04/26 08:56:46;;;;;;;5.50;3.40;;;;;;;9.94;41.16;97427.41;1781319;78;26145;-80
2021/04/26 08:59:14;;;;;;;7.67;3.87;;;;;;;9.87;40.41;97433.33;1788707;78;25805;-80
2021/04/26 09:01:48;;;;;;;7.03;2.92;;;;;;;9.31;39.88;97430.40;1783771;78;26469;-80
2021/04/26 09:04:16;;;;;;;7.05;3.37;;;;;;;8.90;39.81;97436.37;1810213;78;25743;-78
2021/04/26 09:06:52;;;;;;;7.87;3.65;;;;;;;8.38;39.72;97432.34;1816224;78;27686;-80
2021/04/26 09:09:49;;;;;;;11.80;4.50;;;;;;;8.27;39.96;97426.96;1787277;78;25712;-80
2021/04/26 09:12:31;;;;;;;7.33;3.42;;;;;;;7.91;39.71;97435.67;1802956;78;26251;-80
2021/04/26 09:15:03;;;;;;;5.90;2.80;;;;;;;8.10;41.13;97433.64;1803135;78;25772;-79
2021/04/26 09:17:44;;;;;;;6.97;3.27;;;;;;;8.94;40.94;97429.02;1807975;78;25736;-79
2021/04/26 09:20:22;;;;;;;4.00;2.37;;;;;;;8.94;40.22;97426.33;1799902;78;28184;-80
2021/04/26 09:22:56;;;;;;;7.30;2.80;;;;;;;8.98;39.81;97423.55;1778788;78;25787;-80
2021/04/26 09:25:39;;;;;;;5.67;2.47;;;;;;;8.97;39.53;97422.41;1802986;78;25261;-80
2021/04/26 09:28:19;;;;;;;4.92;2.12;;;;;;;8.76;39.69;97420.66;1803099;78;26276;-80
2021/04/26 09:30:55;;;;;;;3.47;2.40;;;;;;;9.01;39.55;97423.16;1803074;78;25810;-80
2021/04/26 09:33:35;;;;;;;3.25;2.22;;;;;;;9.60;39.39;97413.07;1814254;78;27489;-80
2021/04/26 09:36:14;;;;;;;5.10;2.45;;;;;;;10.17;38.05;97403.55;1802509;78;26052;-79
2021/04/26 09:38:51;;;;;;;6.28;2.45;;;;;;;10.63;37.19;97404.02;1802973;78;25739;-80
2021/04/26 09:41:28;;;;;;;5.03;2.80;;;;;;;10.99;37.06;97407.56;1791547;78;26283;-78
2021/04/26 09:44:09;;;;;;;4.33;2.90;;;;;;;10.59;35.54;97418.99;1803123;78;25786;-79
2021/04/26 09:46:44;;;;;;;6.05;2.60;;;;;;;9.95;36.19;97408.84;1787345;78;27545;-79
2021/04/26 09:49:15;;;;;;;6.37;2.77;;;;;;;9.68;36.43;97408.82;1789965;78;26270;-80
2021/04/26 09:51:52;;;;;;;5.33;2.92;;;;;;;9.29;36.56;97410.11;1803028;78;25779;-81
2021/04/26 09:54:42;;;;;;;4.95;2.70;;;;;;;8.94;36.35;97411.52;1803106;78;26436;-81
2021/04/26 09:57:10;;;;;;;5.37;3.08;;;;;;;8.97;37.50;97397.66;1811963;78;25759;-80
2021/04/26 09:59:38;;;;;;;6.65;3.00;;;;;;;9.70;38.51;97402.72;1800371;78;27554;-80
2021/04/26 10:02:06;;;;;;;4.95;3.00;;;;;;;10.44;38.07;97407.91;1788920;78;26281;-81
2021/04/26 10:04:34;;;;;;;6.45;2.80;;;;;;;10.78;37.06;97397.33;1796815;78;25763;-80
2021/04/26 10:07:02;;;;;;;4.25;2.98;;;;;;;10.42;35.98;97400.53;1787030;78;25819;-79
2021/04/26 10:09:30;;;;;;;6.55;3.00;;;;;;;10.40;35.94;97395.03;1802467;78;25704;-79
2021/04/26 10:11:57;;;;;;;3.62;2.30;;;;;;;10.38;35.73;97400.67;1803069;78;27690;-81
2021/04/26 10:14:25;;;;;;;5.12;3.12;;;;;;;10.64;36.30;97388.13;1813434;77;25833;-80
2021/04/26 10:17:06;;;;;;;9.15;3.47;;;;;;;11.05;36.65;97390.48;1803218;78;25918;-81
2021/04/26 10:19:39;;;;;;;4.35;3.30;;;;;;;11.61;36.75;97385.17;1784420;78;25929;-80
2021/04/26 10:22:07;;;;;;;4.17;3.08;;;;;;;12.17;36.97;97376.25;1788229;78;25681;-80
2021/04/26 10:24:35;;;;;;;6.17;3.60;;;;;;;12.75;35.98;97369.09;1783582;78;27483;-80
2021/04/26 10:27:07;;;;;;;4.97;3.50;;;;;;;12.44;34.84;97388.45;1790544;78;25290;-80
2021/04/26 10:29:36;;;;;;;;;;;;;;;12.63;35.17;97374.43;1809066;78;25822;-80
2021/04/26 10:32:09;;;;;;;5.28;3.15;;;;;;;12.84;34.52;97379.91;1787267;78;26626;-82
2021/04/26 10:34:51;;;;;;;5.35;3.45;;;;;;;12.86;34.58;97373.22;1801038;78;25796;-80
2021/04/26 10:37:23;;;;;;;6.08;3.12;;;;;;;12.43;33.69;97370.59;1789004;78;28416;-80
2021/04/26 10:40:03;;;;;;;4.62;3.05;;;;;;;11.85;34.28;97368.70;1804253;78;25657;-81
2021/04/26 10:42:45;;;;;;;5.83;3.30;;;;;;;11.49;34.04;97361.23;1804514;78;25839;-80
2021/04/26 10:45:20;;;;;;;6.15;3.42;;;;;;;11.65;34.97;97363.42;1795741;78;25683;-81
2021/04/26 10:47:58;;;;;;;6.78;3.05;;;;;;;11.98;34.53;97344.25;1806062;78;26448;-81
2021/04/26 10:50:29;;;;;;;4.12;3.00;;;;;;;12.18;34.62;97345.44;1815837;78;29094;-81
2021/04/26 10:52:59;;;;;;;4.20;3.35;;;;;;;12.12;33.96;97342.25;1797589;78;26051;-81
2021/04/26 10:55:34;;;;;;;9.73;3.77;;;;;;;12.14;34.04;97332.04;1799654;78;25728;-81
2021/04/26 10:58:07;;;;;;;5.37;3.25;;;;;;;12.31;34.25;97325.02;1792533;78;26622;-82
2021/04/26 11:00:44;;;;;;;7.95;3.95;;;;;;;12.88;34.14;97310.70;1791913;78;26454;-81
2021/04/26 11:03:19;;;;;;;6.87;3.95;;;;;;;13.29;32.89;97325.67;1795000;78;27668;-81
2021/04/26 11:05:51;;;;;;;7.65;3.83;;;;;;;12.74;32.58;97318.68;1792533;78;26201;-81
2021/04/26 11:08:37;;;;;;;8.23;3.87;;;;;;;12.93;33.67;97318.95;1806087;78;25701;-81
2021/04/26 11:11:12;;;;;;;14.38;4.58;;;;;;;13.47;33.11;97323.97;1792568;78;25708;-81
2021/04/26 11:13:53;;;;;;;6.42;4.55;;;;;;;13.18;32.89;97323.75;1795248;77;26160;-81
2021/04/26 11:16:31;;;;;;;9.35;4.75;;;;;;;12.92;33.24;97319.47;1813636;78;27467;-82
2021/04/26 11:19:09;;;;;;;6.72;4.25;;;;;;;12.61;33.39;97311.55;1803031;78;25799;-80
2021/04/26 11:21:51;;;;;;;10.20;4.72;;;;;;;12.83;33.95;97315.95;1811316;78;25710;-79
2021/04/26 11:24:39;;;;;;;8.53;4.60;;;;;;;12.90;34.08;97309.95;1793181;78;26053;-80
2021/04/26 11:27:19;;;;;;;7.80;4.35;;;;;;;12.75;32.97;97308.98;1801456;78;25758;-80
2021/04/26 11:29:55;;;;;;;7.67;3.77;;;;;;;12.51;33.10;97310.72;1800888;78;27284;-80
2021/04/26 11:32:25;;;;;;;7.22;4.08;;;;;;;12.20;32.44;97297.30;1799567;78;25799;-81
2021/04/26 11:35:00;;;;;;;10.53;5.95;;;;;;;11.94;32.99;97297.06;1795778;78;25742;-80
2021/04/26 11:37:31;;;;;;;9.68;4.72;;;;;;;11.71;32.97;97294.13;1796927;78;25786;-79
2021/04/26 11:39:58;;;;;;;9.17;5.17;;;;;;;11.51;33.11;97296.97;1796620;78;25902;-80
2021/04/26 11:42:30;;;;;;;8.83;4.33;;;;;;;11.59;33.31;97295.37;1788184;78;27405;-80